首页
METAR-TAF:

METAR-TAF

机场 :

梅赫拉巴德國際機場

德黑兰, 伊朗

纬度: 35-41N, 经度: 051-21E, 海拔: 1204米

当前天气观测

该预报发布于10分钟前的11:30 UTC
静风
温度 35°C
湿度 9%
气压 1016 hPa
能见度10公里或以上
1500米以下无云,无积雨云

METAR: OIII 191130Z 00000KT CAVOK 35/M02 Q1016 A3000

时间: 16:10 (11:40 UTC)

预报

该预报发布于30分钟前的11:10 UTC
预报有效从19日的 12点(UTC)到 20日的 18点(UTC)
风速8节,风向南转南东
能見度: 8000
少量云层高于4000英尺

TAF: OIII 191110Z 1912/2018 16008KT 8000 FEW040

超过4000个机场的气象观测和天气预报(METAR&TAF报告)。

可查询的气象台以黄色和红色小点在地图上表示。

将鼠标移到小点上方,可查看气象台名称。

然后点击查看天气观测和预报。

如需切换地图:点击带黑十字的绿色按钮放大地图;点击带横线的绿色按钮缩小地图;或者点击绿色箭头查看邻近地区的地图。


METAR-TAF: